sensor_id;sensor_type;location;lat;lon;timestamp;P1;durP1;ratioP1;P2;durP2;ratioP2
52102;SDS011;38101;53.126;6.878;2022-07-06T00:01:30;7.35;;;2.33;;
52102;SDS011;38101;53.126;6.878;2022-07-06T00:03:56;5.47;;;2.47;;
52102;SDS011;38101;53.126;6.878;2022-07-06T00:06:22;5.80;;;2.10;;
52102;SDS011;38101;53.126;6.878;2022-07-06T00:08:48;5.40;;;2.35;;
52102;SDS011;38101;53.126;6.878;2022-07-06T00:11:13;5.30;;;2.60;;
52102;SDS011;38101;53.126;6.878;2022-07-06T00:13:39;6.47;;;2.45;;
52102;SDS011;38101;53.126;6.878;2022-07-06T00:16:05;5.10;;;2.33;;
52102;SDS011;38101;53.126;6.878;2022-07-06T00:18:30;5.70;;;2.55;;
52102;SDS011;38101;53.126;6.878;2022-07-06T00:20:56;5.93;;;2.35;;
52102;SDS011;38101;53.126;6.878;2022-07-06T00:23:22;4.22;;;2.25;;
52102;SDS011;38101;53.126;6.878;2022-07-06T00:25:48;6.07;;;2.58;;
52102;SDS011;38101;53.126;6.878;2022-07-06T00:28:14;4.28;;;2.10;;
52102;SDS011;38101;53.126;6.878;2022-07-06T00:30:40;5.53;;;2.58;;
52102;SDS011;38101;53.126;6.878;2022-07-06T00:33:06;4.30;;;2.00;;
52102;SDS011;38101;53.126;6.878;2022-07-06T00:35:32;4.05;;;1.80;;
52102;SDS011;38101;53.126;6.878;2022-07-06T00:37:58;5.13;;;1.98;;
52102;SDS011;38101;53.126;6.878;2022-07-06T00:40:24;3.15;;;1.58;;
52102;SDS011;38101;53.126;6.878;2022-07-06T00:42:49;2.92;;;1.75;;
52102;SDS011;38101;53.126;6.878;2022-07-06T00:45:16;4.10;;;1.90;;
52102;SDS011;38101;53.126;6.878;2022-07-06T00:47:43;3.28;;;2.00;;
52102;SDS011;38101;53.126;6.878;2022-07-06T00:50:12;3.72;;;1.67;;
52102;SDS011;38101;53.126;6.878;2022-07-06T00:52:40;3.67;;;1.60;;
52102;SDS011;38101;53.126;6.878;2022-07-06T00:55:07;2.88;;;1.60;;
52102;SDS011;38101;53.126;6.878;2022-07-06T00:57:34;4.70;;;1.83;;
52102;SDS011;38101;53.126;6.878;2022-07-06T01:00:01;4.50;;;1.85;;
52102;SDS011;38101;53.126;6.878;2022-07-06T01:02:31;2.67;;;1.60;;
52102;SDS011;38101;53.126;6.878;2022-07-06T01:04:57;3.25;;;1.70;;
52102;SDS011;38101;53.126;6.878;2022-07-06T01:07:23;2.92;;;1.90;;
52102;SDS011;38101;53.126;6.878;2022-07-06T01:09:50;4.47;;;1.73;;
52102;SDS011;38101;53.126;6.878;2022-07-06T01:12:15;3.22;;;1.50;;
52102;SDS011;38101;53.126;6.878;2022-07-06T01:14:42;4.65;;;1.70;;
52102;SDS011;38101;53.126;6.878;2022-07-06T01:17:08;4.57;;;1.67;;
52102;SDS011;38101;53.126;6.878;2022-07-06T01:19:34;4.15;;;1.85;;
52102;SDS011;38101;53.126;6.878;2022-07-06T01:22:00;3.97;;;1.80;;
52102;SDS011;38101;53.126;6.878;2022-07-06T01:24:26;4.10;;;2.00;;
52102;SDS011;38101;53.126;6.878;2022-07-06T01:26:51;2.30;;;1.60;;
52102;SDS011;38101;53.126;6.878;2022-07-06T01:29:17;4.28;;;2.00;;
52102;SDS011;38101;53.126;6.878;2022-07-06T01:31:47;5.07;;;2.00;;
52102;SDS011;38101;53.126;6.878;2022-07-06T01:34:14;3.78;;;1.52;;
52102;SDS011;38101;53.126;6.878;2022-07-06T01:36:42;4.65;;;1.88;;
52102;SDS011;38101;53.126;6.878;2022-07-06T01:39:08;3.92;;;1.80;;
52102;SDS011;38101;53.126;6.878;2022-07-06T01:41:34;6.15;;;2.38;;
52102;SDS011;38101;53.126;6.878;2022-07-06T01:44:00;6.35;;;1.95;;
52102;SDS011;38101;53.126;6.878;2022-07-06T01:46:26;4.57;;;2.00;;
52102;SDS011;38101;53.126;6.878;2022-07-06T01:48:52;4.43;;;1.80;;
52102;SDS011;38101;53.126;6.878;2022-07-06T01:51:17;3.80;;;1.90;;
52102;SDS011;38101;53.126;6.878;2022-07-06T01:53:43;3.83;;;1.75;;
52102;SDS011;38101;53.126;6.878;2022-07-06T01:56:10;4.03;;;1.63;;
52102;SDS011;38101;53.126;6.878;2022-07-06T01:58:37;5.32;;;2.13;;
52102;SDS011;38101;53.126;6.878;2022-07-06T02:01:10;4.40;;;2.15;;
52102;SDS011;38101;53.126;6.878;2022-07-06T02:03:41;5.55;;;2.00;;
52102;SDS011;38101;53.126;6.878;2022-07-06T02:06:07;2.92;;;1.63;;
52102;SDS011;38101;53.126;6.878;2022-07-06T02:08:33;4.60;;;1.92;;
52102;SDS011;38101;53.126;6.878;2022-07-06T02:11:01;3.92;;;1.90;;
52102;SDS011;38101;53.126;6.878;2022-07-06T02:13:31;5.53;;;1.90;;
52102;SDS011;38101;53.126;6.878;2022-07-06T02:15:57;3.15;;;1.80;;
52102;SDS011;38101;53.126;6.878;2022-07-06T02:18:22;3.30;;;1.92;;
52102;SDS011;38101;53.126;6.878;2022-07-06T02:20:48;3.90;;;1.77;;
52102;SDS011;38101;53.126;6.878;2022-07-06T02:23:13;3.97;;;2.10;;
52102;SDS011;38101;53.126;6.878;2022-07-06T02:25:39;4.53;;;2.13;;
52102;SDS011;38101;53.126;6.878;2022-07-06T02:28:05;5.28;;;2.00;;
52102;SDS011;38101;53.126;6.878;2022-07-06T02:30:30;3.58;;;1.90;;
52102;SDS011;38101;53.126;6.878;2022-07-06T02:32:56;3.70;;;1.90;;
52102;SDS011;38101;53.126;6.878;2022-07-06T02:35:22;4.32;;;2.05;;
52102;SDS011;38101;53.126;6.878;2022-07-06T02:37:47;4.15;;;1.98;;
52102;SDS011;38101;53.126;6.878;2022-07-06T02:40:13;4.25;;;1.95;;
52102;SDS011;38101;53.126;6.878;2022-07-06T02:42:39;4.88;;;2.17;;
52102;SDS011;38101;53.126;6.878;2022-07-06T02:45:05;3.80;;;1.85;;
52102;SDS011;38101;53.126;6.878;2022-07-06T02:47:31;4.57;;;2.10;;
52102;SDS011;38101;53.126;6.878;2022-07-06T02:49:57;3.70;;;1.95;;
52102;SDS011;38101;53.126;6.878;2022-07-06T02:52:23;5.60;;;2.30;;
52102;SDS011;38101;53.126;6.878;2022-07-06T02:54:48;4.40;;;2.10;;
52102;SDS011;38101;53.126;6.878;2022-07-06T02:57:14;3.85;;;1.92;;
52102;SDS011;38101;53.126;6.878;2022-07-06T02:59:40;5.65;;;2.15;;
52102;SDS011;38101;53.126;6.878;2022-07-06T03:02:06;4.57;;;1.90;;
52102;SDS011;38101;53.126;6.878;2022-07-06T03:04:32;4.72;;;2.10;;
52102;SDS011;38101;53.126;6.878;2022-07-06T03:06:58;3.30;;;1.98;;
52102;SDS011;38101;53.126;6.878;2022-07-06T03:09:24;4.03;;;2.35;;
52102;SDS011;38101;53.126;6.878;2022-07-06T03:11:50;3.25;;;2.10;;
52102;SDS011;38101;53.126;6.878;2022-07-06T03:14:16;5.55;;;2.67;;
52102;SDS011;38101;53.126;6.878;2022-07-06T03:16:42;5.40;;;2.15;;
52102;SDS011;38101;53.126;6.878;2022-07-06T03:19:07;6.03;;;2.20;;
52102;SDS011;38101;53.126;6.878;2022-07-06T03:21:33;5.57;;;2.25;;
52102;SDS011;38101;53.126;6.878;2022-07-06T03:23:58;5.40;;;2.40;;
52102;SDS011;38101;53.126;6.878;2022-07-06T03:26:24;4.55;;;2.00;;
52102;SDS011;38101;53.126;6.878;2022-07-06T03:28:50;5.40;;;2.40;;
52102;SDS011;38101;53.126;6.878;2022-07-06T03:31:15;4.00;;;2.08;;
52102;SDS011;38101;53.126;6.878;2022-07-06T03:33:41;3.30;;;2.03;;
52102;SDS011;38101;53.126;6.878;2022-07-06T03:36:07;5.28;;;2.35;;
52102;SDS011;38101;53.126;6.878;2022-07-06T03:38:33;2.92;;;1.85;;
52102;SDS011;38101;53.126;6.878;2022-07-06T03:41:00;3.33;;;2.00;;
52102;SDS011;38101;53.126;6.878;2022-07-06T03:43:25;4.50;;;2.35;;
52102;SDS011;38101;53.126;6.878;2022-07-06T03:45:51;6.25;;;2.10;;
52102;SDS011;38101;53.126;6.878;2022-07-06T03:48:17;6.43;;;2.20;;
52102;SDS011;38101;53.126;6.878;2022-07-06T03:50:42;4.47;;;2.25;;
52102;SDS011;38101;53.126;6.878;2022-07-06T03:53:08;4.22;;;1.95;;
52102;SDS011;38101;53.126;6.878;2022-07-06T03:55:34;4.25;;;2.13;;
52102;SDS011;38101;53.126;6.878;2022-07-06T03:57:59;4.57;;;1.85;;
52102;SDS011;38101;53.126;6.878;2022-07-06T04:00:25;4.13;;;1.90;;
52102;SDS011;38101;53.126;6.878;2022-07-06T04:02:51;4.53;;;1.90;;
52102;SDS011;38101;53.126;6.878;2022-07-06T04:05:17;3.95;;;2.00;;
52102;SDS011;38101;53.126;6.878;2022-07-06T04:07:46;4.43;;;1.92;;
52102;SDS011;38101;53.126;6.878;2022-07-06T04:10:13;4.32;;;2.00;;
52102;SDS011;38101;53.126;6.878;2022-07-06T04:12:43;5.28;;;2.40;;
52102;SDS011;38101;53.126;6.878;2022-07-06T04:15:10;4.90;;;2.28;;
52102;SDS011;38101;53.126;6.878;2022-07-06T04:17:36;4.40;;;1.85;;
52102;SDS011;38101;53.126;6.878;2022-07-06T04:20:17;3.70;;;2.03;;
52102;SDS011;38101;53.126;6.878;2022-07-06T04:22:44;5.57;;;2.25;;
52102;SDS011;38101;53.126;6.878;2022-07-06T04:25:09;5.15;;;2.00;;
52102;SDS011;38101;53.126;6.878;2022-07-06T04:27:35;5.65;;;2.13;;
52102;SDS011;38101;53.126;6.878;2022-07-06T04:30:01;5.35;;;2.15;;
52102;SDS011;38101;53.126;6.878;2022-07-06T04:32:30;5.68;;;2.03;;
52102;SDS011;38101;53.126;6.878;2022-07-06T04:34:56;5.63;;;2.03;;
52102;SDS011;38101;53.126;6.878;2022-07-06T04:37:22;5.38;;;2.20;;
52102;SDS011;38101;53.126;6.878;2022-07-06T04:39:47;5.57;;;2.10;;
52102;SDS011;38101;53.126;6.878;2022-07-06T04:42:13;3.25;;;2.17;;
52102;SDS011;38101;53.126;6.878;2022-07-06T04:44:39;5.22;;;2.30;;
52102;SDS011;38101;53.126;6.878;2022-07-06T04:47:05;5.85;;;2.08;;
52102;SDS011;38101;53.126;6.878;2022-07-06T04:49:30;4.47;;;1.92;;
52102;SDS011;38101;53.126;6.878;2022-07-06T04:51:56;4.05;;;2.10;;
52102;SDS011;38101;53.126;6.878;2022-07-06T04:54:22;6.00;;;2.47;;
52102;SDS011;38101;53.126;6.878;2022-07-06T04:56:47;4.07;;;2.30;;
52102;SDS011;38101;53.126;6.878;2022-07-06T04:59:13;6.32;;;2.35;;
52102;SDS011;38101;53.126;6.878;2022-07-06T05:01:39;4.47;;;2.42;;
52102;SDS011;38101;53.126;6.878;2022-07-06T05:04:05;6.05;;;2.38;;
52102;SDS011;38101;53.126;6.878;2022-07-06T05:06:34;3.78;;;2.08;;
52102;SDS011;38101;53.126;6.878;2022-07-06T05:09:00;5.80;;;2.45;;
52102;SDS011;38101;53.126;6.878;2022-07-06T05:11:26;4.43;;;2.22;;
52102;SDS011;38101;53.126;6.878;2022-07-06T05:13:52;4.28;;;2.00;;
52102;SDS011;38101;53.126;6.878;2022-07-06T05:16:19;3.80;;;1.80;;
52102;SDS011;38101;53.126;6.878;2022-07-06T05:18:45;3.15;;;1.83;;
52102;SDS011;38101;53.126;6.878;2022-07-06T05:21:11;5.85;;;1.90;;
52102;SDS011;38101;53.126;6.878;2022-07-06T05:23:37;6.18;;;1.92;;
52102;SDS011;38101;53.126;6.878;2022-07-06T05:26:02;5.35;;;1.90;;
52102;SDS011;38101;53.126;6.878;2022-07-06T05:28:28;4.38;;;1.80;;
52102;SDS011;38101;53.126;6.878;2022-07-06T05:30:53;3.28;;;1.70;;
52102;SDS011;38101;53.126;6.878;2022-07-06T05:33:19;5.10;;;1.48;;
52102;SDS011;38101;53.126;6.878;2022-07-06T05:35:45;4.38;;;1.40;;
52102;SDS011;38101;53.126;6.878;2022-07-06T05:38:10;2.55;;;1.00;;
52102;SDS011;38101;53.126;6.878;2022-07-06T05:40:36;1.45;;;1.00;;
52102;SDS011;38101;53.126;6.878;2022-07-06T05:43:02;1.70;;;1.00;;
52102;SDS011;38101;53.126;6.878;2022-07-06T05:45:28;2.72;;;1.08;;
52102;SDS011;38101;53.126;6.878;2022-07-06T05:47:54;2.50;;;0.75;;
52102;SDS011;38101;53.126;6.878;2022-07-06T05:50:38;2.08;;;0.90;;
52102;SDS011;38101;53.126;6.878;2022-07-06T05:53:04;2.78;;;1.02;;
52102;SDS011;38101;53.126;6.878;2022-07-06T05:55:30;2.80;;;0.88;;
52102;SDS011;38101;53.126;6.878;2022-07-06T05:57:56;1.67;;;1.00;;
52102;SDS011;38101;53.126;6.878;2022-07-06T06:00:22;2.22;;;1.05;;
52102;SDS011;38101;53.126;6.878;2022-07-06T06:02:49;1.75;;;1.02;;
52102;SDS011;38101;53.126;6.878;2022-07-06T06:05:15;2.75;;;1.20;;
52102;SDS011;38101;53.126;6.878;2022-07-06T06:07:42;3.80;;;1.67;;
52102;SDS011;38101;53.126;6.878;2022-07-06T06:10:09;1.60;;;1.20;;
52102;SDS011;38101;53.126;6.878;2022-07-06T06:12:36;1.90;;;1.30;;
52102;SDS011;38101;53.126;6.878;2022-07-06T06:15:03;2.45;;;1.17;;
52102;SDS011;38101;53.126;6.878;2022-07-06T06:17:29;3.30;;;1.67;;
52102;SDS011;38101;53.126;6.878;2022-07-06T06:19:55;6.82;;;2.00;;
52102;SDS011;38101;53.126;6.878;2022-07-06T06:22:21;4.45;;;1.40;;
52102;SDS011;38101;53.126;6.878;2022-07-06T06:24:47;4.60;;;1.58;;
52102;SDS011;38101;53.126;6.878;2022-07-06T06:27:12;4.90;;;1.30;;
52102;SDS011;38101;53.126;6.878;2022-07-06T06:29:38;6.25;;;1.60;;
52102;SDS011;38101;53.126;6.878;2022-07-06T06:32:04;4.85;;;1.45;;
52102;SDS011;38101;53.126;6.878;2022-07-06T06:34:30;2.53;;;1.00;;
52102;SDS011;38101;53.126;6.878;2022-07-06T06:36:57;4.43;;;1.10;;
52102;SDS011;38101;53.126;6.878;2022-07-06T06:39:23;6.55;;;1.00;;
52102;SDS011;38101;53.126;6.878;2022-07-06T06:41:49;2.35;;;1.13;;
52102;SDS011;38101;53.126;6.878;2022-07-06T06:44:14;3.08;;;1.30;;
52102;SDS011;38101;53.126;6.878;2022-07-06T06:46:40;4.10;;;1.45;;
52102;SDS011;38101;53.126;6.878;2022-07-06T06:49:06;2.70;;;1.23;;
52102;SDS011;38101;53.126;6.878;2022-07-06T06:51:32;3.33;;;1.08;;
52102;SDS011;38101;53.126;6.878;2022-07-06T06:53:58;1.70;;;1.08;;
52102;SDS011;38101;53.126;6.878;2022-07-06T06:56:24;4.70;;;1.58;;
52102;SDS011;38101;53.126;6.878;2022-07-06T06:58:49;2.83;;;1.30;;
52102;SDS011;38101;53.126;6.878;2022-07-06T07:01:15;4.03;;;1.17;;
52102;SDS011;38101;53.126;6.878;2022-07-06T07:03:41;3.17;;;1.23;;
52102;SDS011;38101;53.126;6.878;2022-07-06T07:06:06;3.20;;;1.50;;
52102;SDS011;38101;53.126;6.878;2022-07-06T07:08:32;3.65;;;1.48;;
52102;SDS011;38101;53.126;6.878;2022-07-06T07:10:58;5.07;;;1.33;;
52102;SDS011;38101;53.126;6.878;2022-07-06T07:13:24;5.18;;;1.50;;
52102;SDS011;38101;53.126;6.878;2022-07-06T07:15:49;5.40;;;1.42;;
52102;SDS011;38101;53.126;6.878;2022-07-06T07:18:15;2.55;;;1.23;;
52102;SDS011;38101;53.126;6.878;2022-07-06T07:20:41;3.45;;;1.40;;
52102;SDS011;38101;53.126;6.878;2022-07-06T07:23:06;3.83;;;1.38;;
52102;SDS011;38101;53.126;6.878;2022-07-06T07:25:32;2.78;;;1.33;;
52102;SDS011;38101;53.126;6.878;2022-07-06T07:27:58;2.58;;;1.38;;
52102;SDS011;38101;53.126;6.878;2022-07-06T07:30:23;3.70;;;1.50;;
52102;SDS011;38101;53.126;6.878;2022-07-06T07:32:49;2.85;;;1.15;;
52102;SDS011;38101;53.126;6.878;2022-07-06T07:35:15;8.60;;;1.83;;
52102;SDS011;38101;53.126;6.878;2022-07-06T07:37:40;2.58;;;1.45;;
52102;SDS011;38101;53.126;6.878;2022-07-06T07:40:06;3.20;;;1.52;;
52102;SDS011;38101;53.126;6.878;2022-07-06T07:42:32;4.72;;;1.50;;
52102;SDS011;38101;53.126;6.878;2022-07-06T07:44:58;5.28;;;1.67;;
52102;SDS011;38101;53.126;6.878;2022-07-06T07:47:24;3.78;;;1.52;;
52102;SDS011;38101;53.126;6.878;2022-07-06T07:49:49;5.20;;;1.33;;
52102;SDS011;38101;53.126;6.878;2022-07-06T07:52:15;4.68;;;1.50;;
52102;SDS011;38101;53.126;6.878;2022-07-06T07:54:41;4.07;;;1.38;;
52102;SDS011;38101;53.126;6.878;2022-07-06T07:57:06;5.00;;;1.67;;
52102;SDS011;38101;53.126;6.878;2022-07-06T07:59:32;4.97;;;1.60;;
52102;SDS011;38101;53.126;6.878;2022-07-06T08:01:57;4.15;;;1.52;;
52102;SDS011;38101;53.126;6.878;2022-07-06T08:04:23;4.82;;;1.50;;
52102;SDS011;38101;53.126;6.878;2022-07-06T08:06:49;5.28;;;1.63;;
52102;SDS011;38101;53.126;6.878;2022-07-06T08:09:15;3.78;;;1.27;;
52102;SDS011;38101;53.126;6.878;2022-07-06T08:11:42;6.50;;;1.63;;
52102;SDS011;38101;53.126;6.878;2022-07-06T08:14:07;3.72;;;1.38;;
52102;SDS011;38101;53.126;6.878;2022-07-06T08:16:33;4.00;;;1.38;;
52102;SDS011;38101;53.126;6.878;2022-07-06T08:18:59;2.95;;;1.50;;
52102;SDS011;38101;53.126;6.878;2022-07-06T08:21:26;5.25;;;1.83;;
52102;SDS011;38101;53.126;6.878;2022-07-06T08:23:52;2.30;;;1.17;;
52102;SDS011;38101;53.126;6.878;2022-07-06T08:26:19;5.03;;;1.50;;
52102;SDS011;38101;53.126;6.878;2022-07-06T08:28:44;6.88;;;1.50;;
52102;SDS011;38101;53.126;6.878;2022-07-06T08:31:10;5.28;;;1.50;;
52102;SDS011;38101;53.126;6.878;2022-07-06T08:33:36;4.25;;;1.45;;
52102;SDS011;38101;53.126;6.878;2022-07-06T08:36:02;4.20;;;1.02;;
52102;SDS011;38101;53.126;6.878;2022-07-06T08:38:28;3.83;;;1.38;;
52102;SDS011;38101;53.126;6.878;2022-07-06T08:40:53;5.50;;;1.83;;
52102;SDS011;38101;53.126;6.878;2022-07-06T08:43:20;5.93;;;1.88;;
52102;SDS011;38101;53.126;6.878;2022-07-06T08:45:46;3.05;;;1.55;;
52102;SDS011;38101;53.126;6.878;2022-07-06T08:48:15;4.22;;;1.52;;
52102;SDS011;38101;53.126;6.878;2022-07-06T08:50:43;6.85;;;1.45;;
52102;SDS011;38101;53.126;6.878;2022-07-06T08:53:09;6.32;;;1.58;;
52102;SDS011;38101;53.126;6.878;2022-07-06T08:55:34;2.33;;;1.45;;
52102;SDS011;38101;53.126;6.878;2022-07-06T08:58:01;2.50;;;1.10;;
52102;SDS011;38101;53.126;6.878;2022-07-06T09:00:27;2.88;;;1.10;;
52102;SDS011;38101;53.126;6.878;2022-07-06T09:02:52;6.43;;;1.40;;
52102;SDS011;38101;53.126;6.878;2022-07-06T09:05:22;2.28;;;0.80;;
52102;SDS011;38101;53.126;6.878;2022-07-06T09:07:49;4.38;;;1.33;;
52102;SDS011;38101;53.126;6.878;2022-07-06T09:10:16;8.07;;;1.60;;
52102;SDS011;38101;53.126;6.878;2022-07-06T09:12:44;3.47;;;1.30;;
52102;SDS011;38101;53.126;6.878;2022-07-06T09:15:10;4.57;;;1.13;;
52102;SDS011;38101;53.126;6.878;2022-07-06T09:17:39;4.55;;;1.60;;
52102;SDS011;38101;53.126;6.878;2022-07-06T09:20:06;3.13;;;1.00;;
52102;SDS011;38101;53.126;6.878;2022-07-06T09:22:36;2.25;;;0.93;;
52102;SDS011;38101;53.126;6.878;2022-07-06T09:27:38;6.50;;;1.50;;
52102;SDS011;38101;53.126;6.878;2022-07-06T09:30:06;4.15;;;1.10;;
52102;SDS011;38101;53.126;6.878;2022-07-06T09:35:31;3.95;;;1.20;;
52102;SDS011;38101;53.126;6.878;2022-07-06T09:40:33;5.47;;;1.25;;
52102;SDS011;38101;53.126;6.878;2022-07-06T09:43:10;2.55;;;1.00;;
52102;SDS011;38101;53.126;6.878;2022-07-06T09:45:40;2.42;;;1.15;;
52102;SDS011;38101;53.126;6.878;2022-07-06T09:48:14;7.05;;;1.25;;
52102;SDS011;38101;53.126;6.878;2022-07-06T09:50:56;2.67;;;1.00;;
52102;SDS011;38101;53.126;6.878;2022-07-06T09:53:23;2.00;;;1.00;;
52102;SDS011;38101;53.126;6.878;2022-07-06T09:55:52;2.53;;;1.20;;
52102;SDS011;38101;53.126;6.878;2022-07-06T09:58:19;2.92;;;1.20;;
52102;SDS011;38101;53.126;6.878;2022-07-06T10:00:46;2.40;;;1.10;;
52102;SDS011;38101;53.126;6.878;2022-07-06T10:03:12;9.43;;;1.50;;
52102;SDS011;38101;53.126;6.878;2022-07-06T10:05:41;4.40;;;1.30;;
52102;SDS011;38101;53.126;6.878;2022-07-06T10:08:09;2.92;;;1.20;;
52102;SDS011;38101;53.126;6.878;2022-07-06T10:10:35;4.07;;;1.33;;
52102;SDS011;38101;53.126;6.878;2022-07-06T10:13:03;4.30;;;1.42;;
52102;SDS011;38101;53.126;6.878;2022-07-06T10:15:31;3.13;;;1.23;;
52102;SDS011;38101;53.126;6.878;2022-07-06T10:17:58;3.78;;;1.30;;
52102;SDS011;38101;53.126;6.878;2022-07-06T10:20:27;4.60;;;1.55;;
52102;SDS011;38101;53.126;6.878;2022-07-06T10:22:54;1.88;;;1.08;;
52102;SDS011;38101;53.126;6.878;2022-07-06T10:25:24;2.22;;;1.10;;
52102;SDS011;38101;53.126;6.878;2022-07-06T10:27:51;2.28;;;1.00;;
52102;SDS011;38101;53.126;6.878;2022-07-06T10:30:18;3.58;;;1.25;;
52102;SDS011;38101;53.126;6.878;2022-07-06T10:32:45;3.25;;;1.17;;
52102;SDS011;38101;53.126;6.878;2022-07-06T10:35:13;4.97;;;1.55;;
52102;SDS011;38101;53.126;6.878;2022-07-06T10:37:39;3.70;;;1.40;;
52102;SDS011;38101;53.126;6.878;2022-07-06T10:40:05;2.95;;;1.35;;
52102;SDS011;38101;53.126;6.878;2022-07-06T10:43:00;4.78;;;1.38;;
52102;SDS011;38101;53.126;6.878;2022-07-06T10:50:54;3.30;;;1.27;;
52102;SDS011;38101;53.126;6.878;2022-07-06T10:53:27;5.60;;;1.50;;
52102;SDS011;38101;53.126;6.878;2022-07-06T10:55:55;2.55;;;1.48;;
52102;SDS011;38101;53.126;6.878;2022-07-06T11:01:03;3.90;;;1.30;;
52102;SDS011;38101;53.126;6.878;2022-07-06T11:06:15;3.25;;;1.20;;
52102;SDS011;38101;53.126;6.878;2022-07-06T11:16:31;3.92;;;1.70;;
52102;SDS011;38101;53.126;6.878;2022-07-06T11:19:03;4.85;;;1.80;;
52102;SDS011;38101;53.126;6.878;2022-07-06T11:24:01;3.90;;;1.73;;
52102;SDS011;38101;53.126;6.878;2022-07-06T11:26:28;3.85;;;1.50;;
52102;SDS011;38101;53.126;6.878;2022-07-06T11:28:55;3.47;;;1.00;;
52102;SDS011;38101;53.126;6.878;2022-07-06T11:31:24;4.45;;;1.60;;
52102;SDS011;38101;53.126;6.878;2022-07-06T11:33:50;2.75;;;1.20;;
52102;SDS011;38101;53.126;6.878;2022-07-06T11:36:19;2.78;;;1.30;;
52102;SDS011;38101;53.126;6.878;2022-07-06T11:38:47;3.38;;;1.55;;
52102;SDS011;38101;53.126;6.878;2022-07-06T11:41:14;3.03;;;1.23;;
52102;SDS011;38101;53.126;6.878;2022-07-06T11:43:42;2.58;;;1.30;;
52102;SDS011;38101;53.126;6.878;2022-07-06T11:49:01;7.28;;;1.67;;
52102;SDS011;38101;53.126;6.878;2022-07-06T11:51:29;3.55;;;1.25;;
52102;SDS011;38101;53.126;6.878;2022-07-06T11:53:57;5.07;;;1.33;;
52102;SDS011;38101;53.126;6.878;2022-07-06T11:56:25;5.35;;;1.40;;
52102;SDS011;38101;53.126;6.878;2022-07-06T11:58:59;2.45;;;1.27;;
52102;SDS011;38101;53.126;6.878;2022-07-06T12:01:26;2.90;;;1.30;;
52102;SDS011;38101;53.126;6.878;2022-07-06T12:03:53;4.32;;;1.60;;
52102;SDS011;38101;53.126;6.878;2022-07-06T12:06:23;3.53;;;1.30;;
52102;SDS011;38101;53.126;6.878;2022-07-06T12:08:50;3.05;;;1.20;;
52102;SDS011;38101;53.126;6.878;2022-07-06T12:11:29;3.20;;;1.20;;
52102;SDS011;38101;53.126;6.878;2022-07-06T12:14:00;4.15;;;1.30;;
52102;SDS011;38101;53.126;6.878;2022-07-06T12:16:36;2.30;;;1.23;;
52102;SDS011;38101;53.126;6.878;2022-07-06T12:19:02;4.55;;;1.70;;
52102;SDS011;38101;53.126;6.878;2022-07-06T12:21:29;7.30;;;1.35;;
52102;SDS011;38101;53.126;6.878;2022-07-06T12:23:55;3.05;;;1.25;;
52102;SDS011;38101;53.126;6.878;2022-07-06T12:26:22;3.83;;;1.40;;
52102;SDS011;38101;53.126;6.878;2022-07-06T12:31:33;4.68;;;1.30;;
52102;SDS011;38101;53.126;6.878;2022-07-06T12:34:03;3.40;;;1.25;;
52102;SDS011;38101;53.126;6.878;2022-07-06T12:36:30;2.72;;;1.20;;
52102;SDS011;38101;53.126;6.878;2022-07-06T12:39:09;2.38;;;1.00;;
52102;SDS011;38101;53.126;6.878;2022-07-06T12:41:37;3.92;;;1.70;;
52102;SDS011;38101;53.126;6.878;2022-07-06T12:44:08;3.60;;;1.40;;
52102;SDS011;38101;53.126;6.878;2022-07-06T12:46:35;3.42;;;1.35;;
52102;SDS011;38101;53.126;6.878;2022-07-06T12:49:21;2.88;;;1.20;;
52102;SDS011;38101;53.126;6.878;2022-07-06T12:52:01;3.60;;;1.17;;
52102;SDS011;38101;53.126;6.878;2022-07-06T12:54:49;3.03;;;1.10;;
52102;SDS011;38101;53.126;6.878;2022-07-06T12:57:24;3.85;;;1.20;;
52102;SDS011;38101;53.126;6.878;2022-07-06T13:05:01;2.45;;;1.15;;
52102;SDS011;38101;53.126;6.878;2022-07-06T13:07:30;2.83;;;1.25;;
52102;SDS011;38101;53.126;6.878;2022-07-06T13:09:57;2.45;;;1.15;;
52102;SDS011;38101;53.126;6.878;2022-07-06T13:12:23;2.70;;;1.35;;
52102;SDS011;38101;53.126;6.878;2022-07-06T13:14:50;2.90;;;1.30;;
52102;SDS011;38101;53.126;6.878;2022-07-06T13:17:16;5.65;;;1.58;;
52102;SDS011;38101;53.126;6.878;2022-07-06T13:19:42;6.20;;;1.60;;
52102;SDS011;38101;53.126;6.878;2022-07-06T13:22:07;2.75;;;1.20;;
52102;SDS011;38101;53.126;6.878;2022-07-06T13:24:33;2.50;;;1.27;;
52102;SDS011;38101;53.126;6.878;2022-07-06T13:26:59;4.05;;;1.30;;
52102;SDS011;38101;53.126;6.878;2022-07-06T13:29:25;2.47;;;1.10;;
52102;SDS011;38101;53.126;6.878;2022-07-06T13:31:51;3.00;;;1.30;;
52102;SDS011;38101;53.126;6.878;2022-07-06T13:34:17;2.40;;;1.20;;
52102;SDS011;38101;53.126;6.878;2022-07-06T13:36:42;2.40;;;1.10;;
52102;SDS011;38101;53.126;6.878;2022-07-06T13:39:08;1.55;;;1.00;;
52102;SDS011;38101;53.126;6.878;2022-07-06T13:41:36;2.83;;;1.42;;
52102;SDS011;38101;53.126;6.878;2022-07-06T13:44:02;2.25;;;1.10;;
52102;SDS011;38101;53.126;6.878;2022-07-06T13:46:28;1.67;;;1.17;;
52102;SDS011;38101;53.126;6.878;2022-07-06T13:48:56;2.50;;;1.10;;
52102;SDS011;38101;53.126;6.878;2022-07-06T13:51:23;2.50;;;1.40;;
52102;SDS011;38101;53.126;6.878;2022-07-06T13:53:49;3.30;;;1.20;;
52102;SDS011;38101;53.126;6.878;2022-07-06T13:56:15;2.35;;;1.33;;
52102;SDS011;38101;53.126;6.878;2022-07-06T13:58:42;3.20;;;1.40;;
52102;SDS011;38101;53.126;6.878;2022-07-06T14:01:08;2.53;;;1.13;;
52102;SDS011;38101;53.126;6.878;2022-07-06T14:03:34;3.58;;;1.40;;
52102;SDS011;38101;53.126;6.878;2022-07-06T14:06:02;2.15;;;1.25;;
52102;SDS011;38101;53.126;6.878;2022-07-06T14:08:29;3.08;;;1.33;;
52102;SDS011;38101;53.126;6.878;2022-07-06T14:10:55;4.43;;;1.42;;
52102;SDS011;38101;53.126;6.878;2022-07-06T14:13:22;4.40;;;1.30;;
52102;SDS011;38101;53.126;6.878;2022-07-06T14:15:48;2.10;;;1.33;;
52102;SDS011;38101;53.126;6.878;2022-07-06T14:18:13;1.50;;;1.10;;
52102;SDS011;38101;53.126;6.878;2022-07-06T14:20:42;2.70;;;1.30;;
52102;SDS011;38101;53.126;6.878;2022-07-06T14:23:11;8.70;;;1.90;;
52102;SDS011;38101;53.126;6.878;2022-07-06T14:25:38;3.47;;;1.50;;
52102;SDS011;38101;53.126;6.878;2022-07-06T14:28:04;3.88;;;1.40;;
52102;SDS011;38101;53.126;6.878;2022-07-06T14:30:31;2.35;;;1.10;;
52102;SDS011;38101;53.126;6.878;2022-07-06T14:32:57;3.13;;;1.67;;
52102;SDS011;38101;53.126;6.878;2022-07-06T14:35:23;2.47;;;1.30;;
52102;SDS011;38101;53.126;6.878;2022-07-06T14:37:50;1.10;;;1.00;;
52102;SDS011;38101;53.126;6.878;2022-07-06T14:40:16;2.55;;;1.30;;
52102;SDS011;38101;53.126;6.878;2022-07-06T14:42:42;1.80;;;1.30;;
52102;SDS011;38101;53.126;6.878;2022-07-06T14:45:08;2.65;;;1.20;;
52102;SDS011;38101;53.126;6.878;2022-07-06T14:47:34;1.77;;;1.35;;
52102;SDS011;38101;53.126;6.878;2022-07-06T14:50:01;3.70;;;1.20;;
52102;SDS011;38101;53.126;6.878;2022-07-06T14:52:28;3.08;;;1.33;;
52102;SDS011;38101;53.126;6.878;2022-07-06T14:54:54;5.53;;;1.50;;
52102;SDS011;38101;53.126;6.878;2022-07-06T14:57:20;2.13;;;1.27;;
52102;SDS011;38101;53.126;6.878;2022-07-06T14:59:45;3.90;;;1.70;;
52102;SDS011;38101;53.126;6.878;2022-07-06T15:02:11;3.42;;;1.50;;
52102;SDS011;38101;53.126;6.878;2022-07-06T15:04:36;3.35;;;1.50;;
52102;SDS011;38101;53.126;6.878;2022-07-06T15:07:02;3.10;;;1.45;;
52102;SDS011;38101;53.126;6.878;2022-07-06T15:09:28;2.25;;;1.42;;
52102;SDS011;38101;53.126;6.878;2022-07-06T15:11:55;3.20;;;1.42;;
52102;SDS011;38101;53.126;6.878;2022-07-06T15:14:21;3.72;;;1.33;;
52102;SDS011;38101;53.126;6.878;2022-07-06T15:16:47;3.08;;;1.50;;
52102;SDS011;38101;53.126;6.878;2022-07-06T15:19:13;4.40;;;1.63;;
52102;SDS011;38101;53.126;6.878;2022-07-06T15:21:39;2.50;;;1.50;;
52102;SDS011;38101;53.126;6.878;2022-07-06T15:24:05;3.35;;;1.63;;
52102;SDS011;38101;53.126;6.878;2022-07-06T15:26:31;3.00;;;1.67;;